sensor_id;sensor_type;location;lat;lon;timestamp;temperature;humidity
54680;DHT22;40578;53.178;5.846;2022-12-29T00:02:00;9.00;99.90
54680;DHT22;40578;53.178;5.846;2022-12-29T00:04:26;9.30;99.90
54680;DHT22;40578;53.178;5.846;2022-12-29T00:06:52;9.20;99.90
54680;DHT22;40578;53.178;5.846;2022-12-29T00:09:18;9.50;99.90
54680;DHT22;40578;53.178;5.846;2022-12-29T00:11:43;8.90;99.90
54680;DHT22;40578;53.178;5.846;2022-12-29T00:14:10;9.50;99.90
54680;DHT22;40578;53.178;5.846;2022-12-29T00:16:56;9.50;99.90
54680;DHT22;40578;53.178;5.846;2022-12-29T00:19:22;9.90;99.90
54680;DHT22;40578;53.178;5.846;2022-12-29T00:22:06;8.80;99.90
54680;DHT22;40578;53.178;5.846;2022-12-29T00:24:51;10.20;99.90
54680;DHT22;40578;53.178;5.846;2022-12-29T00:27:36;8.90;99.90
54680;DHT22;40578;53.178;5.846;2022-12-29T00:30:22;9.50;99.90
54680;DHT22;40578;53.178;5.846;2022-12-29T00:33:14;8.80;99.90
54680;DHT22;40578;53.178;5.846;2022-12-29T00:39:08;8.90;99.90
54680;DHT22;40578;53.178;5.846;2022-12-29T00:41:53;8.90;99.90
54680;DHT22;40578;53.178;5.846;2022-12-29T00:44:37;8.90;99.90
54680;DHT22;40578;53.178;5.846;2022-12-29T00:47:03;9.40;99.90
54680;DHT22;40578;53.178;5.846;2022-12-29T00:49:30;9.00;99.90
54680;DHT22;40578;53.178;5.846;2022-12-29T00:54:27;9.50;99.90
54680;DHT22;40578;53.178;5.846;2022-12-29T00:56:53;9.40;99.90
54680;DHT22;40578;53.178;5.846;2022-12-29T00:59:19;8.90;99.90
54680;DHT22;40578;53.178;5.846;2022-12-29T01:01:45;8.90;99.90
54680;DHT22;40578;53.178;5.846;2022-12-29T01:04:11;9.20;99.90
54680;DHT22;40578;53.178;5.846;2022-12-29T01:06:39;9.50;99.90
54680;DHT22;40578;53.178;5.846;2022-12-29T01:09:05;9.00;99.90
54680;DHT22;40578;53.178;5.846;2022-12-29T01:11:50;9.50;99.90
54680;DHT22;40578;53.178;5.846;2022-12-29T01:14:17;9.30;99.90
54680;DHT22;40578;53.178;5.846;2022-12-29T01:16:43;9.40;99.90
54680;DHT22;40578;53.178;5.846;2022-12-29T01:19:09;8.90;99.90
54680;DHT22;40578;53.178;5.846;2022-12-29T01:21:34;9.60;99.90
54680;DHT22;40578;53.178;5.846;2022-12-29T01:24:00;8.90;99.90
54680;DHT22;40578;53.178;5.846;2022-12-29T01:26:26;9.60;99.90
54680;DHT22;40578;53.178;5.846;2022-12-29T01:28:51;9.10;99.90
54680;DHT22;40578;53.178;5.846;2022-12-29T01:31:17;9.10;99.90
54680;DHT22;40578;53.178;5.846;2022-12-29T01:33:43;9.60;99.90
54680;DHT22;40578;53.178;5.846;2022-12-29T01:36:14;9.60;99.90
54680;DHT22;40578;53.178;5.846;2022-12-29T01:38:40;9.40;99.90
54680;DHT22;40578;53.178;5.846;2022-12-29T01:41:08;9.00;99.90
54680;DHT22;40578;53.178;5.846;2022-12-29T01:43:49;9.10;99.90
54680;DHT22;40578;53.178;5.846;2022-12-29T01:46:30;9.10;99.90
54680;DHT22;40578;53.178;5.846;2022-12-29T01:49:13;9.10;99.90
54680;DHT22;40578;53.178;5.846;2022-12-29T01:51:48;9.50;99.90
54680;DHT22;40578;53.178;5.846;2022-12-29T01:54:20;9.00;99.90
54680;DHT22;40578;53.178;5.846;2022-12-29T01:56:48;9.40;99.90
54680;DHT22;40578;53.178;5.846;2022-12-29T01:59:21;10.70;99.90
54680;DHT22;40578;53.178;5.846;2022-12-29T02:01:47;9.70;99.90
54680;DHT22;40578;53.178;5.846;2022-12-29T02:04:14;9.70;99.90
54680;DHT22;40578;53.178;5.846;2022-12-29T02:06:55;10.40;99.90
54680;DHT22;40578;53.178;5.846;2022-12-29T02:09:22;9.40;99.90
54680;DHT22;40578;53.178;5.846;2022-12-29T02:11:49;8.90;99.90
54680;DHT22;40578;53.178;5.846;2022-12-29T02:14:15;9.70;99.90
54680;DHT22;40578;53.178;5.846;2022-12-29T02:22:19;9.50;99.90
54680;DHT22;40578;53.178;5.846;2022-12-29T02:25:04;9.60;99.90
54680;DHT22;40578;53.178;5.846;2022-12-29T02:33:30;9.30;99.90
54680;DHT22;40578;53.178;5.846;2022-12-29T02:42:07;9.50;99.90
54680;DHT22;40578;53.178;5.846;2022-12-29T02:50:37;9.30;99.90
54680;DHT22;40578;53.178;5.846;2022-12-29T02:53:13;9.00;99.90
54680;DHT22;40578;53.178;5.846;2022-12-29T02:55:48;9.30;99.90
54680;DHT22;40578;53.178;5.846;2022-12-29T02:58:22;9.20;99.90
54680;DHT22;40578;53.178;5.846;2022-12-29T03:06:29;9.10;99.90
54680;DHT22;40578;53.178;5.846;2022-12-29T03:11:35;8.90;99.90
54680;DHT22;40578;53.178;5.846;2022-12-29T03:15:18;9.00;99.90
54680;DHT22;40578;53.178;5.846;2022-12-29T03:18:06;8.80;99.90
54680;DHT22;40578;53.178;5.846;2022-12-29T03:20:44;9.10;99.90
54680;DHT22;40578;53.178;5.846;2022-12-29T03:23:16;9.00;99.90
54680;DHT22;40578;53.178;5.846;2022-12-29T03:25:48;8.80;99.90
54680;DHT22;40578;53.178;5.846;2022-12-29T03:28:24;9.00;99.90
54680;DHT22;40578;53.178;5.846;2022-12-29T03:30:53;9.00;99.90
54680;DHT22;40578;53.178;5.846;2022-12-29T03:33:23;8.80;99.90
54680;DHT22;40578;53.178;5.846;2022-12-29T03:35:50;9.20;99.90
54680;DHT22;40578;53.178;5.846;2022-12-29T03:38:27;9.20;99.90
54680;DHT22;40578;53.178;5.846;2022-12-29T03:40:57;8.80;99.90
54680;DHT22;40578;53.178;5.846;2022-12-29T03:43:25;9.10;99.90
54680;DHT22;40578;53.178;5.846;2022-12-29T03:45:51;8.90;99.90
54680;DHT22;40578;53.178;5.846;2022-12-29T03:48:16;9.10;99.90
54680;DHT22;40578;53.178;5.846;2022-12-29T03:50:42;8.80;99.90
54680;DHT22;40578;53.178;5.846;2022-12-29T03:53:08;9.60;99.90
54680;DHT22;40578;53.178;5.846;2022-12-29T03:55:33;9.00;99.90
54680;DHT22;40578;53.178;5.846;2022-12-29T03:57:59;8.80;99.90
54680;DHT22;40578;53.178;5.846;2022-12-29T04:00:24;8.90;99.90
54680;DHT22;40578;53.178;5.846;2022-12-29T04:02:50;8.80;99.90
54680;DHT22;40578;53.178;5.846;2022-12-29T04:05:16;8.40;99.90
54680;DHT22;40578;53.178;5.846;2022-12-29T04:07:41;9.00;99.90
54680;DHT22;40578;53.178;5.846;2022-12-29T04:10:07;8.70;99.90
54680;DHT22;40578;53.178;5.846;2022-12-29T04:12:33;8.40;99.90
54680;DHT22;40578;53.178;5.846;2022-12-29T04:14:59;8.70;99.90
54680;DHT22;40578;53.178;5.846;2022-12-29T04:17:24;8.70;99.90
54680;DHT22;40578;53.178;5.846;2022-12-29T04:19:50;8.70;99.90
54680;DHT22;40578;53.178;5.846;2022-12-29T04:22:16;8.30;99.90
54680;DHT22;40578;53.178;5.846;2022-12-29T04:24:41;8.50;99.90
54680;DHT22;40578;53.178;5.846;2022-12-29T04:27:07;8.60;99.90
54680;DHT22;40578;53.178;5.846;2022-12-29T04:29:33;8.60;99.90
54680;DHT22;40578;53.178;5.846;2022-12-29T04:31:58;8.40;99.90
54680;DHT22;40578;53.178;5.846;2022-12-29T04:34:24;8.60;99.90
54680;DHT22;40578;53.178;5.846;2022-12-29T04:36:49;8.40;99.90
54680;DHT22;40578;53.178;5.846;2022-12-29T04:39:15;9.20;99.90
54680;DHT22;40578;53.178;5.846;2022-12-29T04:41:40;8.50;99.90
54680;DHT22;40578;53.178;5.846;2022-12-29T04:44:06;8.70;99.90
54680;DHT22;40578;53.178;5.846;2022-12-29T04:46:32;8.50;99.90
54680;DHT22;40578;53.178;5.846;2022-12-29T04:48:57;8.70;99.90
54680;DHT22;40578;53.178;5.846;2022-12-29T04:51:23;8.60;99.90
54680;DHT22;40578;53.178;5.846;2022-12-29T04:53:48;9.40;99.90
54680;DHT22;40578;53.178;5.846;2022-12-29T04:56:14;8.80;99.90
54680;DHT22;40578;53.178;5.846;2022-12-29T04:58:40;8.70;99.90
54680;DHT22;40578;53.178;5.846;2022-12-29T05:01:05;8.80;99.90
54680;DHT22;40578;53.178;5.846;2022-12-29T05:03:31;8.90;99.90
54680;DHT22;40578;53.178;5.846;2022-12-29T05:05:57;8.80;99.90
54680;DHT22;40578;53.178;5.846;2022-12-29T05:08:23;8.70;99.90
54680;DHT22;40578;53.178;5.846;2022-12-29T05:10:50;8.70;99.90
54680;DHT22;40578;53.178;5.846;2022-12-29T05:13:16;8.90;99.90
54680;DHT22;40578;53.178;5.846;2022-12-29T05:15:52;8.70;99.90
54680;DHT22;40578;53.178;5.846;2022-12-29T05:18:18;8.90;99.90
54680;DHT22;40578;53.178;5.846;2022-12-29T05:20:44;8.80;99.90
54680;DHT22;40578;53.178;5.846;2022-12-29T05:23:10;9.00;99.90
54680;DHT22;40578;53.178;5.846;2022-12-29T05:25:36;8.80;99.90
54680;DHT22;40578;53.178;5.846;2022-12-29T05:28:01;8.70;99.90
54680;DHT22;40578;53.178;5.846;2022-12-29T05:30:27;8.60;99.90
54680;DHT22;40578;53.178;5.846;2022-12-29T05:32:53;8.70;99.90
54680;DHT22;40578;53.178;5.846;2022-12-29T05:35:18;8.70;99.90
54680;DHT22;40578;53.178;5.846;2022-12-29T05:37:44;8.80;99.90
54680;DHT22;40578;53.178;5.846;2022-12-29T05:40:10;8.60;99.90
54680;DHT22;40578;53.178;5.846;2022-12-29T05:42:35;8.60;99.90
54680;DHT22;40578;53.178;5.846;2022-12-29T05:45:01;8.80;99.90
54680;DHT22;40578;53.178;5.846;2022-12-29T05:47:27;8.60;99.90
54680;DHT22;40578;53.178;5.846;2022-12-29T05:49:52;8.80;99.90
54680;DHT22;40578;53.178;5.846;2022-12-29T05:52:18;10.20;99.90
54680;DHT22;40578;53.178;5.846;2022-12-29T05:54:43;8.80;99.90
54680;DHT22;40578;53.178;5.846;2022-12-29T05:57:09;8.80;99.90
54680;DHT22;40578;53.178;5.846;2022-12-29T05:59:35;8.70;99.90
54680;DHT22;40578;53.178;5.846;2022-12-29T06:02:02;8.60;99.90
54680;DHT22;40578;53.178;5.846;2022-12-29T06:04:28;8.60;99.90
54680;DHT22;40578;53.178;5.846;2022-12-29T06:06:54;8.60;99.90
54680;DHT22;40578;53.178;5.846;2022-12-29T06:09:19;8.80;99.90
54680;DHT22;40578;53.178;5.846;2022-12-29T06:11:45;8.80;99.90
54680;DHT22;40578;53.178;5.846;2022-12-29T06:14:11;8.70;99.90
54680;DHT22;40578;53.178;5.846;2022-12-29T06:16:36;8.70;99.90
54680;DHT22;40578;53.178;5.846;2022-12-29T06:19:02;8.60;99.90
54680;DHT22;40578;53.178;5.846;2022-12-29T06:21:27;8.60;99.90
54680;DHT22;40578;53.178;5.846;2022-12-29T06:23:53;8.70;99.90
54680;DHT22;40578;53.178;5.846;2022-12-29T06:26:19;8.70;99.90
54680;DHT22;40578;53.178;5.846;2022-12-29T06:28:44;8.50;99.90
54680;DHT22;40578;53.178;5.846;2022-12-29T06:31:10;8.60;99.90
54680;DHT22;40578;53.178;5.846;2022-12-29T06:33:37;8.50;99.90
54680;DHT22;40578;53.178;5.846;2022-12-29T06:36:03;8.50;99.90
54680;DHT22;40578;53.178;5.846;2022-12-29T06:38:28;8.60;99.90
54680;DHT22;40578;53.178;5.846;2022-12-29T06:40:54;8.50;99.90
54680;DHT22;40578;53.178;5.846;2022-12-29T06:43:19;8.40;99.90
54680;DHT22;40578;53.178;5.846;2022-12-29T06:45:45;8.40;99.90
54680;DHT22;40578;53.178;5.846;2022-12-29T06:48:11;8.50;99.90
54680;DHT22;40578;53.178;5.846;2022-12-29T06:50:36;8.60;99.90
54680;DHT22;40578;53.178;5.846;2022-12-29T06:53:02;8.50;99.90
54680;DHT22;40578;53.178;5.846;2022-12-29T06:55:28;8.70;99.90
54680;DHT22;40578;53.178;5.846;2022-12-29T06:57:55;8.50;99.90
54680;DHT22;40578;53.178;5.846;2022-12-29T07:00:21;8.50;99.90
54680;DHT22;40578;53.178;5.846;2022-12-29T07:02:47;8.70;99.90
54680;DHT22;40578;53.178;5.846;2022-12-29T07:05:13;9.70;99.90
54680;DHT22;40578;53.178;5.846;2022-12-29T07:07:39;8.50;99.90
54680;DHT22;40578;53.178;5.846;2022-12-29T07:10:05;8.70;99.90
54680;DHT22;40578;53.178;5.846;2022-12-29T07:12:31;8.70;99.90
54680;DHT22;40578;53.178;5.846;2022-12-29T07:14:56;8.60;99.90
54680;DHT22;40578;53.178;5.846;2022-12-29T07:17:22;8.80;99.90
54680;DHT22;40578;53.178;5.846;2022-12-29T07:19:47;8.80;99.90
54680;DHT22;40578;53.178;5.846;2022-12-29T07:22:13;8.80;99.90
54680;DHT22;40578;53.178;5.846;2022-12-29T07:24:38;8.70;99.90
54680;DHT22;40578;53.178;5.846;2022-12-29T07:27:04;8.90;99.90
54680;DHT22;40578;53.178;5.846;2022-12-29T07:29:30;8.70;99.90
54680;DHT22;40578;53.178;5.846;2022-12-29T07:31:55;8.70;99.90
54680;DHT22;40578;53.178;5.846;2022-12-29T07:34:21;8.90;99.90
54680;DHT22;40578;53.178;5.846;2022-12-29T07:36:47;8.80;99.90
54680;DHT22;40578;53.178;5.846;2022-12-29T07:39:12;8.70;99.90
54680;DHT22;40578;53.178;5.846;2022-12-29T07:41:38;9.20;99.90
54680;DHT22;40578;53.178;5.846;2022-12-29T07:44:03;8.80;99.90
54680;DHT22;40578;53.178;5.846;2022-12-29T07:46:29;8.80;99.90
54680;DHT22;40578;53.178;5.846;2022-12-29T07:48:55;8.90;99.90
54680;DHT22;40578;53.178;5.846;2022-12-29T07:51:20;8.80;99.90
54680;DHT22;40578;53.178;5.846;2022-12-29T07:53:46;8.80;99.90
54680;DHT22;40578;53.178;5.846;2022-12-29T07:56:11;8.90;99.90
54680;DHT22;40578;53.178;5.846;2022-12-29T07:58:37;8.80;99.90
54680;DHT22;40578;53.178;5.846;2022-12-29T08:01:02;9.80;99.90
54680;DHT22;40578;53.178;5.846;2022-12-29T08:03:28;8.90;99.90
54680;DHT22;40578;53.178;5.846;2022-12-29T08:05:54;9.10;99.90
54680;DHT22;40578;53.178;5.846;2022-12-29T08:08:20;9.00;99.90
54680;DHT22;40578;53.178;5.846;2022-12-29T08:10:46;8.90;99.90
54680;DHT22;40578;53.178;5.846;2022-12-29T08:13:11;8.90;99.90
54680;DHT22;40578;53.178;5.846;2022-12-29T08:15:37;8.90;99.90
54680;DHT22;40578;53.178;5.846;2022-12-29T08:18:03;8.80;99.90
54680;DHT22;40578;53.178;5.846;2022-12-29T08:20:29;8.90;99.90
54680;DHT22;40578;53.178;5.846;2022-12-29T08:22:55;8.90;99.90
54680;DHT22;40578;53.178;5.846;2022-12-29T08:25:21;8.90;99.90
54680;DHT22;40578;53.178;5.846;2022-12-29T08:27:46;8.80;99.90
54680;DHT22;40578;53.178;5.846;2022-12-29T08:30:12;8.80;99.90
54680;DHT22;40578;53.178;5.846;2022-12-29T08:32:38;8.90;99.90
54680;DHT22;40578;53.178;5.846;2022-12-29T08:35:04;9.30;99.90
54680;DHT22;40578;53.178;5.846;2022-12-29T08:37:29;9.00;99.90
54680;DHT22;40578;53.178;5.846;2022-12-29T08:39:57;9.00;99.90
54680;DHT22;40578;53.178;5.846;2022-12-29T08:42:23;8.80;99.90
54680;DHT22;40578;53.178;5.846;2022-12-29T08:44:50;9.00;99.90
54680;DHT22;40578;53.178;5.846;2022-12-29T08:47:16;8.90;99.90
54680;DHT22;40578;53.178;5.846;2022-12-29T08:49:41;8.80;99.90
54680;DHT22;40578;53.178;5.846;2022-12-29T08:52:07;8.70;99.90
54680;DHT22;40578;53.178;5.846;2022-12-29T08:54:33;8.60;99.90
54680;DHT22;40578;53.178;5.846;2022-12-29T08:56:59;8.50;99.90
54680;DHT22;40578;53.178;5.846;2022-12-29T08:59:24;8.60;99.90
54680;DHT22;40578;53.178;5.846;2022-12-29T09:01:50;8.50;99.90
54680;DHT22;40578;53.178;5.846;2022-12-29T09:04:15;8.50;99.90
54680;DHT22;40578;53.178;5.846;2022-12-29T09:06:41;8.90;99.90
54680;DHT22;40578;53.178;5.846;2022-12-29T09:09:07;8.80;99.90
54680;DHT22;40578;53.178;5.846;2022-12-29T09:11:33;8.90;99.90
54680;DHT22;40578;53.178;5.846;2022-12-29T09:13:58;9.00;99.90
54680;DHT22;40578;53.178;5.846;2022-12-29T09:16:24;9.00;99.90
54680;DHT22;40578;53.178;5.846;2022-12-29T09:18:50;8.80;99.90
54680;DHT22;40578;53.178;5.846;2022-12-29T09:21:16;8.90;99.90
54680;DHT22;40578;53.178;5.846;2022-12-29T09:23:41;8.90;99.90
54680;DHT22;40578;53.178;5.846;2022-12-29T09:26:07;8.80;99.90
54680;DHT22;40578;53.178;5.846;2022-12-29T09:28:34;8.90;99.90
54680;DHT22;40578;53.178;5.846;2022-12-29T09:31:00;9.00;99.90
54680;DHT22;40578;53.178;5.846;2022-12-29T09:33:32;9.00;99.90
54680;DHT22;40578;53.178;5.846;2022-12-29T09:36:01;8.60;99.90
54680;DHT22;40578;53.178;5.846;2022-12-29T09:38:27;8.50;99.90
54680;DHT22;40578;53.178;5.846;2022-12-29T09:41:14;8.60;99.90
54680;DHT22;40578;53.178;5.846;2022-12-29T09:46:46;8.50;99.90
54680;DHT22;40578;53.178;5.846;2022-12-29T09:49:38;8.60;99.90
54680;DHT22;40578;53.178;5.846;2022-12-29T09:52:14;8.30;99.90
54680;DHT22;40578;53.178;5.846;2022-12-29T09:58:05;8.30;99.90
54680;DHT22;40578;53.178;5.846;2022-12-29T10:00:19;8.20;99.90
54680;DHT22;40578;53.178;5.846;2022-12-29T10:02:58;8.20;99.90
54680;DHT22;40578;53.178;5.846;2022-12-29T10:10:59;8.70;99.90
54680;DHT22;40578;53.178;5.846;2022-12-29T10:16:23;8.60;99.90
54680;DHT22;40578;53.178;5.846;2022-12-29T10:19:17;8.50;99.90
54680;DHT22;40578;53.178;5.846;2022-12-29T10:22:04;8.70;99.90
54680;DHT22;40578;53.178;5.846;2022-12-29T10:24:34;8.70;99.90
54680;DHT22;40578;53.178;5.846;2022-12-29T10:27:03;9.00;99.90
54680;DHT22;40578;53.178;5.846;2022-12-29T10:29:37;10.40;99.90
54680;DHT22;40578;53.178;5.846;2022-12-29T10:32:09;8.90;99.90
54680;DHT22;40578;53.178;5.846;2022-12-29T10:34:42;9.00;99.90
54680;DHT22;40578;53.178;5.846;2022-12-29T10:37:12;8.90;99.90
54680;DHT22;40578;53.178;5.846;2022-12-29T10:39:49;8.70;99.90
54680;DHT22;40578;53.178;5.846;2022-12-29T10:42:28;8.70;99.90
54680;DHT22;40578;53.178;5.846;2022-12-29T10:44:56;9.00;99.90
54680;DHT22;40578;53.178;5.846;2022-12-29T10:47:26;9.20;99.90
54680;DHT22;40578;53.178;5.846;2022-12-29T10:49:53;9.00;99.90
54680;DHT22;40578;53.178;5.846;2022-12-29T10:52:20;9.20;99.90
54680;DHT22;40578;53.178;5.846;2022-12-29T10:55:05;8.90;99.90
54680;DHT22;40578;53.178;5.846;2022-12-29T10:57:45;8.80;99.90
54680;DHT22;40578;53.178;5.846;2022-12-29T11:00:21;8.90;99.90
54680;DHT22;40578;53.178;5.846;2022-12-29T11:08:27;9.00;99.90
54680;DHT22;40578;53.178;5.846;2022-12-29T11:11:04;9.00;99.90
54680;DHT22;40578;53.178;5.846;2022-12-29T11:13:46;8.90;99.90
54680;DHT22;40578;53.178;5.846;2022-12-29T11:16:12;8.90;99.90
54680;DHT22;40578;53.178;5.846;2022-12-29T11:18:39;9.00;99.90
54680;DHT22;40578;53.178;5.846;2022-12-29T11:21:43;10.00;99.90
54680;DHT22;40578;53.178;5.846;2022-12-29T11:26:45;9.10;99.90
54680;DHT22;40578;53.178;5.846;2022-12-29T11:29:23;9.70;99.90
54680;DHT22;40578;53.178;5.846;2022-12-29T11:31:57;9.00;99.90
54680;DHT22;40578;53.178;5.846;2022-12-29T11:34:35;9.00;99.90
54680;DHT22;40578;53.178;5.846;2022-12-29T11:37:04;9.00;99.90
54680;DHT22;40578;53.178;5.846;2022-12-29T11:39:59;9.00;99.90
54680;DHT22;40578;53.178;5.846;2022-12-29T11:42:36;9.00;99.90
54680;DHT22;40578;53.178;5.846;2022-12-29T11:45:20;9.00;99.90
54680;DHT22;40578;53.178;5.846;2022-12-29T11:47:48;8.90;99.90
54680;DHT22;40578;53.178;5.846;2022-12-29T11:50:21;8.90;99.90
54680;DHT22;40578;53.178;5.846;2022-12-29T11:52:49;9.00;99.90
54680;DHT22;40578;53.178;5.846;2022-12-29T11:55:20;9.00;99.90
54680;DHT22;40578;53.178;5.846;2022-12-29T11:57:48;8.90;99.90
54680;DHT22;40578;53.178;5.846;2022-12-29T12:00:18;9.10;99.90
54680;DHT22;40578;53.178;5.846;2022-12-29T12:03:13;9.00;99.90
54680;DHT22;40578;53.178;5.846;2022-12-29T12:05:56;9.20;99.90
54680;DHT22;40578;53.178;5.846;2022-12-29T12:11:18;9.20;99.90
54680;DHT22;40578;53.178;5.846;2022-12-29T12:14:11;9.20;99.90
54680;DHT22;40578;53.178;5.846;2022-12-29T12:17:28;9.20;99.90
54680;DHT22;40578;53.178;5.846;2022-12-29T12:19:47;9.20;99.90
54680;DHT22;40578;53.178;5.846;2022-12-29T12:22:31;9.20;99.90
54680;DHT22;40578;53.178;5.846;2022-12-29T12:25:12;9.20;99.90
54680;DHT22;40578;53.178;5.846;2022-12-29T12:28:00;9.10;99.90
54680;DHT22;40578;53.178;5.846;2022-12-29T12:30:31;9.10;99.90
54680;DHT22;40578;53.178;5.846;2022-12-29T12:33:13;9.50;99.90
54680;DHT22;40578;53.178;5.846;2022-12-29T12:39:06;9.10;99.90
54680;DHT22;40578;53.178;5.846;2022-12-29T12:44:15;9.30;99.90
54680;DHT22;40578;53.178;5.846;2022-12-29T12:55:31;9.10;99.90
54680;DHT22;40578;53.178;5.846;2022-12-29T13:01:11;9.00;99.90
54680;DHT22;40578;53.178;5.846;2022-12-29T13:07:12;9.00;99.90
54680;DHT22;40578;53.178;5.846;2022-12-29T13:15:50;8.90;99.90
54680;DHT22;40578;53.178;5.846;2022-12-29T13:18:35;8.90;99.90
54680;DHT22;40578;53.178;5.846;2022-12-29T13:24:00;10.40;99.90
54680;DHT22;40578;53.178;5.846;2022-12-29T13:26:33;8.70;99.90
54680;DHT22;40578;53.178;5.846;2022-12-29T13:29:06;8.80;99.90
54680;DHT22;40578;53.178;5.846;2022-12-29T13:32:18;8.50;99.90
54680;DHT22;40578;53.178;5.846;2022-12-29T13:34:54;8.60;99.90
54680;DHT22;40578;53.178;5.846;2022-12-29T13:37:25;8.50;99.90
54680;DHT22;40578;53.178;5.846;2022-12-29T13:39:58;8.50;99.90
54680;DHT22;40578;53.178;5.846;2022-12-29T13:42:25;8.70;99.90
54680;DHT22;40578;53.178;5.846;2022-12-29T13:45:04;9.80;99.90
54680;DHT22;40578;53.178;5.846;2022-12-29T13:50:00;8.80;99.90
54680;DHT22;40578;53.178;5.846;2022-12-29T13:52:39;8.90;99.90
54680;DHT22;40578;53.178;5.846;2022-12-29T13:55:45;8.80;99.90
54680;DHT22;40578;53.178;5.846;2022-12-29T13:58:26;8.80;99.90
54680;DHT22;40578;53.178;5.846;2022-12-29T14:03:54;8.70;99.90
54680;DHT22;40578;53.178;5.846;2022-12-29T14:09:05;9.10;99.90
54680;DHT22;40578;53.178;5.846;2022-12-29T14:11:36;8.60;99.90
54680;DHT22;40578;53.178;5.846;2022-12-29T14:14:23;8.60;99.90
54680;DHT22;40578;53.178;5.846;2022-12-29T14:16:50;8.50;99.90
54680;DHT22;40578;53.178;5.846;2022-12-29T14:19:38;8.40;99.90
54680;DHT22;40578;53.178;5.846;2022-12-29T14:22:07;8.40;99.90
54680;DHT22;40578;53.178;5.846;2022-12-29T14:27:40;8.30;99.90
54680;DHT22;40578;53.178;5.846;2022-12-29T14:29:52;8.20;99.90
54680;DHT22;40578;53.178;5.846;2022-12-29T14:34:47;8.10;99.90
54680;DHT22;40578;53.178;5.846;2022-12-29T14:37:26;8.10;99.90
54680;DHT22;40578;53.178;5.846;2022-12-29T14:42:39;8.00;99.90
54680;DHT22;40578;53.178;5.846;2022-12-29T14:45:29;8.00;99.90
54680;DHT22;40578;53.178;5.846;2022-12-29T14:47:55;8.10;99.90
54680;DHT22;40578;53.178;5.846;2022-12-29T14:50:41;8.00;99.90
54680;DHT22;40578;53.178;5.846;2022-12-29T14:56:10;8.00;99.90
54680;DHT22;40578;53.178;5.846;2022-12-29T14:58:56;8.00;99.90
54680;DHT22;40578;53.178;5.846;2022-12-29T15:04:00;8.00;99.90
54680;DHT22;40578;53.178;5.846;2022-12-29T15:06:30;8.70;99.90
54680;DHT22;40578;53.178;5.846;2022-12-29T15:08:59;8.10;99.90
54680;DHT22;40578;53.178;5.846;2022-12-29T15:14:00;8.00;99.90
54680;DHT22;40578;53.178;5.846;2022-12-29T15:16:31;8.10;99.90
54680;DHT22;40578;53.178;5.846;2022-12-29T15:18:58;8.10;99.90
54680;DHT22;40578;53.178;5.846;2022-12-29T15:21:27;10.10;99.90
54680;DHT22;40578;53.178;5.846;2022-12-29T15:23:54;8.00;99.90
54680;DHT22;40578;53.178;5.846;2022-12-29T15:26:20;8.00;99.90
54680;DHT22;40578;53.178;5.846;2022-12-29T15:28:50;8.00;99.90
54680;DHT22;40578;53.178;5.846;2022-12-29T15:31:20;8.10;99.90
54680;DHT22;40578;53.178;5.846;2022-12-29T15:34:03;8.20;99.90
54680;DHT22;40578;53.178;5.846;2022-12-29T15:36:38;8.10;99.90
54680;DHT22;40578;53.178;5.846;2022-12-29T15:39:34;8.00;99.90
54680;DHT22;40578;53.178;5.846;2022-12-29T15:42:04;8.10;99.90
54680;DHT22;40578;53.178;5.846;2022-12-29T15:47:21;8.00;99.90
54680;DHT22;40578;53.178;5.846;2022-12-29T15:49:50;8.10;99.90
54680;DHT22;40578;53.178;5.846;2022-12-29T15:52:21;7.80;99.90
54680;DHT22;40578;53.178;5.846;2022-12-29T15:54:52;7.70;99.90
54680;DHT22;40578;53.178;5.846;2022-12-29T15:57:26;7.60;99.90
54680;DHT22;40578;53.178;5.846;2022-12-29T15:59:53;7.70;99.90
54680;DHT22;40578;53.178;5.846;2022-12-29T16:02:21;7.50;99.90
54680;DHT22;40578;53.178;5.846;2022-12-29T16:04:48;7.80;99.90
54680;DHT22;40578;53.178;5.846;2022-12-29T16:07:31;7.70;99.90
54680;DHT22;40578;53.178;5.846;2022-12-29T16:09:59;8.40;99.90
54680;DHT22;40578;53.178;5.846;2022-12-29T16:12:31;7.40;99.90
54680;DHT22;40578;53.178;5.846;2022-12-29T16:15:11;7.40;99.90
54680;DHT22;40578;53.178;5.846;2022-12-29T16:17:50;7.30;99.90
54680;DHT22;40578;53.178;5.846;2022-12-29T16:20:19;7.10;99.90
54680;DHT22;40578;53.178;5.846;2022-12-29T16:22:50;7.60;99.90
54680;DHT22;40578;53.178;5.846;2022-12-29T16:25:22;7.20;99.90
54680;DHT22;40578;53.178;5.846;2022-12-29T16:27:50;7.20;99.90
54680;DHT22;40578;53.178;5.846;2022-12-29T16:30:23;7.00;99.90
54680;DHT22;40578;53.178;5.846;2022-12-29T16:32:51;7.20;99.90
54680;DHT22;40578;53.178;5.846;2022-12-29T16:35:25;7.10;99.90
54680;DHT22;40578;53.178;5.846;2022-12-29T16:38:15;7.00;99.90
54680;DHT22;40578;53.178;5.846;2022-12-29T16:41:09;7.00;99.90
54680;DHT22;40578;53.178;5.846;2022-12-29T16:43:39;7.20;99.90
54680;DHT22;40578;53.178;5.846;2022-12-29T16:46:26;7.30;99.90
54680;DHT22;40578;53.178;5.846;2022-12-29T16:48:54;7.10;99.90
54680;DHT22;40578;53.178;5.846;2022-12-29T16:51:31;7.40;99.90
54680;DHT22;40578;53.178;5.846;2022-12-29T16:53:59;7.50;99.90
54680;DHT22;40578;53.178;5.846;2022-12-29T16:56:35;7.50;99.90
54680;DHT22;40578;53.178;5.846;2022-12-29T17:01:48;7.50;99.90
54680;DHT22;40578;53.178;5.846;2022-12-29T17:04:14;7.20;99.90
54680;DHT22;40578;53.178;5.846;2022-12-29T17:06:40;7.40;99.90
54680;DHT22;40578;53.178;5.846;2022-12-29T17:09:32;7.50;99.90
54680;DHT22;40578;53.178;5.846;2022-12-29T17:11:59;7.70;99.90
54680;DHT22;40578;53.178;5.846;2022-12-29T17:15:06;7.60;99.90
54680;DHT22;40578;53.178;5.846;2022-12-29T17:17:42;7.70;99.90
54680;DHT22;40578;53.178;5.846;2022-12-29T17:20:18;7.60;99.90
54680;DHT22;40578;53.178;5.846;2022-12-29T17:22:44;7.70;99.90
54680;DHT22;40578;53.178;5.846;2022-12-29T17:25:15;7.60;99.90
54680;DHT22;40578;53.178;5.846;2022-12-29T17:27:53;7.80;99.90
54680;DHT22;40578;53.178;5.846;2022-12-29T17:30:22;7.50;99.90
54680;DHT22;40578;53.178;5.846;2022-12-29T17:33:03;7.80;99.90
54680;DHT22;40578;53.178;5.846;2022-12-29T17:35:30;7.50;99.90
54680;DHT22;40578;53.178;5.846;2022-12-29T17:37:55;7.60;99.90
54680;DHT22;40578;53.178;5.846;2022-12-29T17:40:24;7.80;99.90
54680;DHT22;40578;53.178;5.846;2022-12-29T17:42:55;7.60;99.90
54680;DHT22;40578;53.178;5.846;2022-12-29T17:45:30;7.60;99.90
54680;DHT22;40578;53.178;5.846;2022-12-29T17:47:57;7.60;99.90
54680;DHT22;40578;53.178;5.846;2022-12-29T17:50:27;7.70;99.90
54680;DHT22;40578;53.178;5.846;2022-12-29T17:55:24;7.60;99.90
54680;DHT22;40578;53.178;5.846;2022-12-29T17:57:51;7.40;99.90
54680;DHT22;40578;53.178;5.846;2022-12-29T18:00:28;7.40;99.90
54680;DHT22;40578;53.178;5.846;2022-12-29T18:02:58;7.40;99.90
54680;DHT22;40578;53.178;5.846;2022-12-29T18:05:28;8.80;99.90
54680;DHT22;40578;53.178;5.846;2022-12-29T18:07:57;7.40;99.90
54680;DHT22;40578;53.178;5.846;2022-12-29T18:10:26;8.00;99.90
54680;DHT22;40578;53.178;5.846;2022-12-29T18:12:53;7.40;99.90
54680;DHT22;40578;53.178;5.846;2022-12-29T18:15:27;7.30;99.90